Time;durP1;ratioP1;P1;durP2;ratioP2;P2;SDS_P1;SDS_P2;PMS_P1;PMS_P2;Temp;Humidity;BMP_temperature;BMP_pressure;BME280_temperature;BME280_humidity;BME280_pressure;Samples;Min_cycle;Max_cycle;Signal;HPM_P1;HPM_P2
2023/09/06 00:01:36;;;;;;;10.47;9.23;;;14.80;99.90;;;;;;5028253;28;20207;-78
2023/09/06 00:04:04;;;;;;;9.50;8.70;;;14.80;99.90;;;;;;5032025;28;20203;-78
2023/09/06 00:06:32;;;;;;;9.70;8.83;;;14.80;99.90;;;;;;5032473;28;20230;-77
2023/09/06 00:08:58;;;;;;;10.07;9.10;;;14.80;99.90;;;;;;5027954;28;20211;-78
2023/09/06 00:11:27;;;;;;;10.13;9.23;;;14.70;99.90;;;;;;5036229;28;20253;-78
2023/09/06 00:13:54;;;;;;;10.03;9.07;;;14.70;99.90;;;;;;5034518;28;20210;-78
2023/09/06 00:16:21;;;;;;;10.87;9.53;;;14.60;99.90;;;;;;5036207;28;20204;-78
2023/09/06 00:18:47;;;;;;;8.97;8.20;;;14.60;99.90;;;;;;5031529;28;20201;-78
2023/09/06 00:21:17;;;;;;;9.90;9.00;;;14.60;99.90;;;;;;5039450;28;20217;-78
2023/09/06 00:23:44;;;;;;;9.60;8.80;;;14.50;99.90;;;;;;5036722;28;20220;-78
2023/09/06 00:26:11;;;;;;;9.97;9.10;;;14.50;99.90;;;;;;5029526;28;20218;-78
2023/09/06 00:28:38;;;;;;;10.33;9.33;;;14.40;99.90;;;;;;5031198;28;20688;-78
2023/09/06 00:31:05;;;;;;;10.23;9.33;;;14.40;99.90;;;;;;5028309;28;20225;-78
2023/09/06 00:33:35;;;;;;;9.97;9.07;;;14.30;99.90;;;;;;5029347;28;20206;-78
2023/09/06 00:36:04;;;;;;;10.37;9.47;;;14.20;99.90;;;;;;5032167;28;20213;-78
2023/09/06 00:38:32;;;;;;;9.70;8.80;;;14.20;99.90;;;;;;5031500;28;20206;-78
2023/09/06 00:40:59;;;;;;;10.50;9.60;;;14.10;99.90;;;;;;5031469;28;20301;-77
2023/09/06 00:43:27;;;;;;;10.03;9.13;;;14.10;99.90;;;;;;5036549;28;20255;-78
2023/09/06 00:45:54;;;;;;;10.33;9.33;;;14.10;99.90;;;;;;5032206;28;21041;-78
2023/09/06 00:48:25;;;;;;;10.03;9.13;;;14.10;99.90;;;;;;5032272;28;20232;-78
2023/09/06 00:50:55;;;;;;;9.57;8.80;;;14.00;99.90;;;;;;5029057;28;20229;-78
2023/09/06 00:53:23;;;;;;;10.70;9.70;;;14.00;99.90;;;;;;5032663;28;20207;-78
2023/09/06 00:55:52;;;;;;;10.23;9.33;;;13.90;99.90;;;;;;5026471;28;20207;-77
2023/09/06 00:58:21;;;;;;;9.83;9.03;;;13.90;99.90;;;;;;5030116;28;20201;-78
2023/09/06 01:00:49;;;;;;;10.13;9.30;;;13.90;99.90;;;;;;5040418;28;20220;-78
2023/09/06 01:03:17;;;;;;;10.30;9.40;;;13.90;99.90;;;;;;5038466;28;20200;-78
2023/09/06 01:05:48;;;;;;;10.43;9.53;;;13.90;99.90;;;;;;5032437;28;20237;-78
2023/09/06 01:08:20;;;;;;;10.47;9.57;;;13.80;99.90;;;;;;5028977;28;20231;-78
2023/09/06 01:10:47;;;;;;;10.67;9.67;;;13.80;99.90;;;;;;5030711;28;20230;-78
2023/09/06 01:13:15;;;;;;;10.50;9.60;;;13.80;99.90;;;;;;5033471;28;20248;-78
2023/09/06 01:15:45;;;;;;;10.40;9.50;;;13.80;99.90;;;;;;5029120;28;20206;-77
2023/09/06 01:18:14;;;;;;;10.40;9.50;;;13.70;99.90;;;;;;5032984;28;20327;-78
2023/09/06 01:20:43;;;;;;;10.13;9.23;;;13.60;99.90;;;;;;5032626;28;20275;-77
2023/09/06 01:23:25;;;;;;;10.30;9.30;;;13.60;99.90;;;;;;5030713;28;20219;-78
2023/09/06 01:25:52;;;;;;;10.30;9.23;;;13.60;99.90;;;;;;5032095;28;20201;-77
2023/09/06 01:28:19;;;;;;;10.33;9.33;;;13.60;99.90;;;;;;5029435;28;20216;-77
2023/09/06 01:30:46;;;;;;;10.50;9.50;;;13.50;99.90;;;;;;5034868;28;20253;-78
2023/09/06 01:34:07;;;;;;;10.73;9.83;;;13.50;99.90;;;;;;5722537;23;20222;-77
2023/09/06 01:36:33;;;;;;;10.20;9.37;;;13.50;99.90;;;;;;4984615;28;20444;-77
2023/09/06 01:39:02;;;;;;;10.40;9.40;;;13.40;99.90;;;;;;4993119;28;20201;-77
2023/09/06 01:41:29;;;;;;;10.67;9.67;;;13.40;99.90;;;;;;4992901;28;20252;-77
2023/09/06 01:43:56;;;;;;;10.90;9.80;;;13.40;99.90;;;;;;4993678;28;20205;-77
2023/09/06 01:46:24;;;;;;;10.80;9.90;;;13.40;99.90;;;;;;4984739;28;20204;-77
2023/09/06 01:48:50;;;;;;;10.67;9.37;;;13.30;99.90;;;;;;4984382;28;20207;-77
2023/09/06 01:51:17;;;;;;;10.87;9.87;;;13.30;99.90;;;;;;4981888;28;20202;-77
2023/09/06 01:53:44;;;;;;;10.03;9.17;;;13.30;99.90;;;;;;4988995;28;20228;-77
2023/09/06 01:56:13;;;;;;;10.37;9.47;;;13.20;99.90;;;;;;4983207;28;20201;-77
2023/09/06 01:58:41;;;;;;;11.30;10.30;;;13.20;99.90;;;;;;5000029;28;20227;-77
2023/09/06 02:01:09;;;;;;;10.37;9.50;;;13.20;99.90;;;;;;4987009;28;20193;-78
2023/09/06 02:03:36;;;;;;;10.13;9.33;;;13.20;99.90;;;;;;4991525;28;20217;-78
2023/09/06 02:06:04;;;;;;;10.50;9.60;;;13.20;99.90;;;;;;4988981;28;20281;-79
2023/09/06 02:08:32;;;;;;;10.67;9.67;;;13.20;99.90;;;;;;4987068;28;20213;-79
2023/09/06 02:10:58;;;;;;;11.03;9.93;;;13.10;99.90;;;;;;4988806;28;20291;-78
2023/09/06 02:13:27;;;;;;;10.43;9.63;;;13.10;99.90;;;;;;4983146;28;20224;-78
2023/09/06 02:15:54;;;;;;;10.40;9.53;;;13.00;99.90;;;;;;4986884;28;20194;-78
2023/09/06 02:18:21;;;;;;;11.10;10.13;;;12.90;99.90;;;;;;4986228;28;20190;-78
2023/09/06 02:20:49;;;;;;;10.67;9.83;;;12.90;99.90;;;;;;4994012;28;20243;-78
2023/09/06 02:23:16;;;;;;;10.60;9.80;;;12.90;99.90;;;;;;4992583;28;20221;-78
2023/09/06 02:25:44;;;;;;;11.17;10.27;;;12.90;99.90;;;;;;4987023;28;20189;-78
2023/09/06 02:28:11;;;;;;;10.60;9.70;;;12.90;99.90;;;;;;4990801;28;20213;-78
2023/09/06 02:30:41;;;;;;;11.27;10.37;;;12.90;99.90;;;;;;4986696;28;20201;-78
2023/09/06 02:33:11;;;;;;;11.07;10.13;;;12.90;99.90;;;;;;4985070;28;20272;-78
2023/09/06 02:35:40;;;;;;;10.93;9.90;;;12.80;99.90;;;;;;4983368;28;20253;-78
2023/09/06 02:38:07;;;;;;;11.10;10.20;;;12.70;99.90;;;;;;4982220;28;20202;-78
2023/09/06 02:40:34;;;;;;;11.47;10.47;;;12.80;99.90;;;;;;4989822;28;20214;-79
2023/09/06 02:43:04;;;;;;;11.20;10.20;;;12.70;99.90;;;;;;4991363;28;20594;-78
2023/09/06 02:45:36;;;;;;;11.17;10.27;;;12.70;99.90;;;;;;4988342;28;20687;-78
2023/09/06 02:48:06;;;;;;;11.37;10.37;;;12.70;99.90;;;;;;4988829;28;20218;-78
2023/09/06 02:50:35;;;;;;;10.93;10.03;;;12.70;99.90;;;;;;4985075;28;20201;-77
2023/09/06 02:53:03;;;;;;;10.20;9.40;;;12.60;99.90;;;;;;4982964;28;20285;-80
2023/09/06 02:55:33;;;;;;;10.03;9.23;;;12.60;99.90;;;;;;4986323;28;20275;-80
2023/09/06 02:58:00;;;;;;;10.83;10.03;;;12.60;99.90;;;;;;4984794;28;20197;-80
2023/09/06 03:00:29;;;;;;;11.40;10.50;;;12.50;99.90;;;;;;4996245;28;20205;-79
2023/09/06 03:02:58;;;;;;;10.20;9.40;;;12.50;99.90;;;;;;4992080;28;20197;-80
2023/09/06 03:05:28;;;;;;;10.30;9.50;;;12.40;99.90;;;;;;4987998;28;20209;-79
2023/09/06 03:07:55;;;;;;;10.40;9.60;;;12.40;99.90;;;;;;4996223;28;20216;-79
2023/09/06 03:10:24;;;;;;;11.30;10.30;;;12.40;99.90;;;;;;4996100;28;20686;-79
2023/09/06 03:12:55;;;;;;;10.70;9.80;;;12.30;99.90;;;;;;4997421;28;20259;-79
2023/09/06 03:15:28;;;;;;;11.40;10.40;;;12.30;99.90;;;;;;4996611;28;20201;-80
2023/09/06 03:18:05;;;;;;;10.73;9.83;;;12.30;99.90;;;;;;4981929;28;20690;-78
2023/09/06 03:20:34;;;;;;;10.37;9.47;;;12.30;99.90;;;;;;4988122;28;20251;-79
2023/09/06 03:23:16;;;;;;;10.30;9.40;;;12.20;99.90;;;;;;4997403;28;20679;-79
2023/09/06 03:25:44;;;;;;;10.67;9.67;;;12.20;99.90;;;;;;5020182;28;20937;-81
2023/09/06 03:28:11;;;;;;;10.90;10.03;;;12.30;99.90;;;;;;4998456;28;20221;-80
2023/09/06 03:30:38;;;;;;;11.30;10.40;;;12.20;99.90;;;;;;4995799;28;20220;-79
2023/09/06 03:33:06;;;;;;;10.50;9.43;;;12.20;99.90;;;;;;4991247;28;20637;-79
2023/09/06 03:35:35;;;;;;;10.33;9.43;;;12.10;99.90;;;;;;4991551;28;20198;-79
2023/09/06 03:38:08;;;;;;;10.73;9.90;;;12.20;99.90;;;;;;4993448;28;20667;-84
2023/09/06 03:40:37;;;;;;;10.23;9.43;;;12.10;99.90;;;;;;4996619;28;20201;-78
2023/09/06 03:43:14;;;;;;;10.70;9.80;;;12.20;99.90;;;;;;4992162;28;20206;-79
2023/09/06 03:45:44;;;;;;;10.10;9.30;;;12.20;99.90;;;;;;5002421;28;20197;-76
2023/09/06 03:48:11;;;;;;;8.80;7.90;;;12.10;99.90;;;;;;4985914;28;20205;-75
2023/09/06 03:50:39;;;;;;;8.40;7.60;;;12.10;99.90;;;;;;4984498;28;20201;-76
2023/09/06 03:53:06;;;;;;;8.80;8.03;;;12.10;99.90;;;;;;4991344;28;20268;-76
2023/09/06 03:55:34;;;;;;;8.27;7.47;;;12.10;99.90;;;;;;4984527;28;20682;-76
2023/09/06 03:58:07;;;;;;;8.50;7.80;;;12.00;99.90;;;;;;4980384;28;20212;-76
2023/09/06 04:00:34;;;;;;;9.93;9.13;;;12.00;99.90;;;;;;4990414;28;20585;-76
2023/09/06 04:03:08;;;;;;;10.97;10.17;;;12.00;99.90;;;;;;4983115;28;20224;-75
2023/09/06 04:05:36;;;;;;;9.97;9.17;;;11.90;99.90;;;;;;4984660;28;20284;-75
2023/09/06 04:08:07;;;;;;;10.67;9.67;;;11.90;99.90;;;;;;4985566;28;20256;-75
2023/09/06 04:10:36;;;;;;;7.77;6.97;;;11.90;99.90;;;;;;4979303;28;20263;-75
2023/09/06 04:13:04;;;;;;;7.80;7.00;;;11.90;99.90;;;;;;4984816;28;20220;-75
2023/09/06 04:15:35;;;;;;;7.37;6.67;;;11.80;99.90;;;;;;4983368;28;20745;-75
2023/09/06 04:18:03;;;;;;;7.70;7.00;;;11.80;99.90;;;;;;4985105;28;20204;-75
2023/09/06 04:20:32;;;;;;;8.17;7.37;;;11.80;99.90;;;;;;4982768;28;20212;-75
2023/09/06 04:23:00;;;;;;;8.20;7.37;;;11.70;99.90;;;;;;4981984;28;20200;-75
2023/09/06 04:25:33;;;;;;;10.63;9.73;;;11.80;99.90;;;;;;4980972;28;20680;-75
2023/09/06 04:28:07;;;;;;;11.20;10.20;;;11.70;99.90;;;;;;4979958;28;20213;-76
2023/09/06 04:30:36;;;;;;;11.60;10.70;;;11.70;99.90;;;;;;4982774;28;20200;-76
2023/09/06 04:33:04;;;;;;;10.67;9.77;;;11.70;99.90;;;;;;4983964;28;20198;-76
2023/09/06 04:35:34;;;;;;;12.87;11.60;;;11.70;99.90;;;;;;4980229;28;20215;-76
2023/09/06 04:38:03;;;;;;;9.87;9.07;;;11.60;99.90;;;;;;4980129;28;20252;-76
2023/09/06 04:40:31;;;;;;;11.07;10.13;;;11.60;99.90;;;;;;4980395;28;20308;-76
2023/09/06 04:42:58;;;;;;;9.70;8.73;;;11.60;99.90;;;;;;4983603;28;20205;-76
2023/09/06 04:45:26;;;;;;;9.07;8.17;;;11.60;99.90;;;;;;4983080;28;20211;-76
2023/09/06 04:47:53;;;;;;;9.63;8.67;;;11.60;99.90;;;;;;4979869;28;20209;-76
2023/09/06 04:50:20;;;;;;;10.50;9.60;;;11.60;99.90;;;;;;4989875;28;20205;-76
2023/09/06 04:52:50;;;;;;;11.37;10.27;;;11.60;99.90;;;;;;4978512;28;20321;-76
2023/09/06 04:55:19;;;;;;;12.07;10.87;;;11.60;99.90;;;;;;4981784;28;20208;-76
2023/09/06 04:57:50;;;;;;;12.00;10.90;;;11.60;99.90;;;;;;4982786;28;20242;-76
2023/09/06 05:00:23;;;;;;;11.83;10.73;;;11.60;99.90;;;;;;4984013;28;20296;-76
2023/09/06 05:02:51;;;;;;;11.80;10.67;;;11.60;99.90;;;;;;4985906;28;20624;-76
2023/09/06 05:05:21;;;;;;;11.60;10.63;;;11.60;99.90;;;;;;4991681;28;20538;-76
2023/09/06 05:07:48;;;;;;;10.27;9.37;;;11.60;99.90;;;;;;4981983;28;20221;-76
2023/09/06 05:10:15;;;;;;;10.33;9.40;;;11.70;99.90;;;;;;4981445;28;20683;-76
2023/09/06 05:12:43;;;;;;;10.43;9.43;;;11.70;99.90;;;;;;4982644;28;20221;-76
2023/09/06 05:15:12;;;;;;;10.70;9.60;;;11.80;99.90;;;;;;4982061;28;20707;-76
2023/09/06 05:17:40;;;;;;;11.13;10.23;;;11.80;99.90;;;;;;4981890;28;20215;-76
2023/09/06 05:20:28;;;;;;;11.60;10.70;;;11.90;99.90;;;;;;4981369;28;20278;-76
2023/09/06 05:22:58;;;;;;;13.60;12.50;;;11.90;99.90;;;;;;4982456;28;20253;-76
2023/09/06 05:25:26;;;;;;;13.23;12.23;;;12.00;99.90;;;;;;4984402;28;20214;-76
2023/09/06 05:27:57;;;;;;;13.27;12.20;;;12.00;99.90;;;;;;4978250;28;20753;-76
2023/09/06 05:30:26;;;;;;;13.10;12.10;;;12.10;99.90;;;;;;4981513;28;20201;-76
2023/09/06 05:32:55;;;;;;;12.50;11.60;;;12.20;99.90;;;;;;4985441;28;20197;-76
2023/09/06 05:35:23;;;;;;;13.13;12.23;;;12.30;99.90;;;;;;4989056;28;20304;-76
2023/09/06 05:37:51;;;;;;;12.93;12.03;;;12.40;99.90;;;;;;4978738;28;20201;-76
2023/09/06 05:40:22;;;;;;;12.10;11.20;;;12.50;99.90;;;;;;4985924;28;20197;-76
2023/09/06 05:42:51;;;;;;;11.47;10.57;;;12.70;99.90;;;;;;4979855;28;20198;-76
2023/09/06 05:45:20;;;;;;;12.37;11.47;;;12.80;99.90;;;;;;4990025;28;20280;-76
2023/09/06 05:47:49;;;;;;;12.30;11.40;;;13.00;99.90;;;;;;4989944;28;20568;-76
2023/09/06 05:50:16;;;;;;;12.27;11.40;;;13.20;99.90;;;;;;4989652;28;20206;-76
2023/09/06 05:52:43;;;;;;;11.13;10.33;;;13.30;99.90;;;;;;4982494;28;20224;-76
2023/09/06 05:55:10;;;;;;;11.10;10.30;;;13.50;99.90;;;;;;4983996;28;20591;-76
2023/09/06 05:57:39;;;;;;;11.43;10.60;;;13.60;99.90;;;;;;4978938;28;20225;-76
2023/09/06 06:00:12;;;;;;;11.60;10.70;;;13.70;99.90;;;;;;4979839;28;20195;-77
2023/09/06 06:02:45;;;;;;;7.90;7.20;;;13.80;99.90;;;;;;4977995;28;20290;-76
2023/09/06 06:05:14;;;;;;;10.17;9.27;;;13.80;99.90;;;;;;4984918;28;20434;-76
2023/09/06 06:07:41;;;;;;;6.30;5.57;;;13.90;99.90;;;;;;4972989;28;20198;-76
2023/09/06 06:10:09;;;;;;;6.67;5.40;;;14.00;99.90;;;;;;4982395;28;20214;-76
2023/09/06 06:12:37;;;;;;;10.93;9.97;;;14.00;99.90;;;;;;4984547;28;20205;-76
2023/09/06 06:15:05;;;;;;;6.57;5.87;;;14.10;99.90;;;;;;4980815;28;20226;-77
2023/09/06 06:17:31;;;;;;;7.50;5.53;;;14.10;99.90;;;;;;4981068;28;20210;-77
2023/09/06 06:19:58;;;;;;;6.03;5.20;;;14.20;99.90;;;;;;4978937;28;20251;-76
2023/09/06 06:22:26;;;;;;;6.63;5.20;;;14.30;99.90;;;;;;4985830;28;20609;-76
2023/09/06 06:24:53;;;;;;;7.77;7.07;;;14.30;99.90;;;;;;4981046;28;20214;-77
2023/09/06 06:27:20;;;;;;;5.93;5.20;;;14.40;99.90;;;;;;4982861;28;20203;-76
2023/09/06 06:29:47;;;;;;;6.13;5.23;;;14.50;99.90;;;;;;4982072;28;20222;-76
2023/09/06 06:32:13;;;;;;;6.00;5.40;;;14.60;99.90;;;;;;4982313;28;20192;-77
2023/09/06 06:34:51;;;;;;;5.87;5.10;;;14.70;99.90;;;;;;4984244;28;20240;-84
2023/09/06 06:37:18;;;;;;;6.73;5.90;;;14.80;99.90;;;;;;4985790;28;20196;-80
2023/09/06 06:39:46;;;;;;;6.73;5.23;;;14.80;99.90;;;;;;4993119;28;20196;-79
2023/09/06 06:42:13;;;;;;;10.47;9.77;;;14.90;99.90;;;;;;4988874;28;20257;-78
2023/09/06 06:44:47;;;;;;;11.20;10.20;;;15.00;99.90;;;;;;4983621;28;20656;-79
2023/09/06 06:47:14;;;;;;;10.67;9.80;;;15.10;99.90;;;;;;4990454;28;20241;-78
2023/09/06 06:49:40;;;;;;;10.67;9.80;;;15.10;99.90;;;;;;4985000;28;20277;-78
2023/09/06 06:52:07;;;;;;;11.13;10.23;;;15.20;99.90;;;;;;4985684;28;20212;-79
2023/09/06 06:54:34;;;;;;;8.33;7.63;;;15.40;99.90;;;;;;4986723;28;20224;-79
2023/09/06 06:57:02;;;;;;;10.53;9.73;;;15.50;99.90;;;;;;4988030;28;20198;-78
2023/09/06 06:59:29;;;;;;;10.23;9.43;;;15.60;99.90;;;;;;4995963;28;20195;-78
2023/09/06 07:01:56;;;;;;;10.23;9.43;;;15.80;99.90;;;;;;4996577;28;20196;-78
2023/09/06 07:04:23;;;;;;;10.30;9.50;;;15.90;99.90;;;;;;4989364;28;20589;-78
2023/09/06 07:06:49;;;;;;;10.30;9.40;;;16.00;99.90;;;;;;4992607;28;20209;-78
2023/09/06 07:09:16;;;;;;;9.60;8.90;;;16.20;99.90;;;;;;4992175;28;20213;-78
2023/09/06 07:11:43;;;;;;;10.40;9.60;;;16.20;99.90;;;;;;4982887;28;20201;-82
2023/09/06 07:14:11;;;;;;;10.87;10.07;;;16.40;99.90;;;;;;4995168;28;20232;-79
2023/09/06 07:16:40;;;;;;;7.13;6.43;;;16.60;99.90;;;;;;4995022;28;20212;-79
2023/09/06 07:19:07;;;;;;;9.67;8.87;;;17.00;99.90;;;;;;4984459;28;20190;-79
2023/09/06 07:21:33;;;;;;;6.00;4.90;;;17.40;99.90;;;;;;4991381;28;20205;-79
2023/09/06 07:24:00;;;;;;;9.30;8.33;;;18.00;99.90;;;;;;4995623;28;20232;-79
2023/09/06 07:26:27;;;;;;;7.37;6.77;;;18.50;99.90;;;;;;4986856;28;20203;-79
2023/09/06 07:28:54;;;;;;;8.43;7.63;;;19.00;99.90;;;;;;4996591;28;20219;-79
2023/09/06 07:31:22;;;;;;;10.20;9.30;;;19.50;99.90;;;;;;4992185;28;20200;-79
2023/09/06 07:33:50;;;;;;;8.73;7.83;;;20.00;99.90;;;;;;4991696;28;20248;-80
2023/09/06 07:36:18;;;;;;;9.47;8.43;;;20.50;99.90;;;;;;5022097;28;20234;-80
2023/09/06 07:38:46;;;;;;;7.87;6.90;;;20.90;99.90;;;;;;4986718;28;20200;-79
2023/09/06 07:41:13;;;;;;;9.30;8.40;;;21.40;99.90;;;;;;4989893;28;20644;-80
2023/09/06 07:43:40;;;;;;;10.93;8.90;;;21.60;99.90;;;;;;4992602;28;20226;-80
2023/09/06 07:46:09;;;;;;;9.17;8.37;;;22.00;99.90;;;;;;4990897;28;20201;-80
2023/09/06 07:48:38;;;;;;;9.77;8.97;;;22.40;99.90;;;;;;4990163;28;20217;-81
2023/09/06 07:51:06;;;;;;;9.40;8.60;;;22.70;99.90;;;;;;4985328;28;20208;-81
2023/09/06 07:53:33;;;;;;;8.67;7.97;;;22.90;99.90;;;;;;4988280;28;20220;-81
2023/09/06 07:55:59;;;;;;;9.50;8.80;;;23.20;99.90;;;;;;4989489;28;20201;-81
2023/09/06 07:58:28;;;;;;;8.73;7.93;;;23.30;99.90;;;;;;4988837;28;20256;-81
2023/09/06 08:00:54;;;;;;;6.93;5.87;;;23.20;99.90;;;;;;4993139;28;20277;-81
2023/09/06 08:03:21;;;;;;;6.70;6.00;;;23.50;99.90;;;;;;4991667;28;20577;-80
2023/09/06 08:05:49;;;;;;;6.77;5.90;;;23.70;99.90;;;;;;4988951;28;20190;-80
2023/09/06 08:08:16;;;;;;;8.27;6.30;;;23.80;99.90;;;;;;4992049;28;20197;-81
2023/09/06 08:10:43;;;;;;;7.93;6.63;;;24.10;99.90;;;;;;4985290;28;21219;-81
2023/09/06 08:13:10;;;;;;;7.67;7.03;;;24.30;99.90;;;;;;4984287;28;20245;-80
2023/09/06 08:15:37;;;;;;;8.50;7.80;;;24.60;99.90;;;;;;4984977;28;20197;-80
2023/09/06 08:18:06;;;;;;;9.37;8.57;;;24.80;99.90;;;;;;4993104;28;20201;-81
2023/09/06 08:20:33;;;;;;;11.50;10.47;;;24.90;99.90;;;;;;5010319;28;20213;-80
2023/09/06 08:23:01;;;;;;;10.43;9.40;;;24.90;99.90;;;;;;4988404;28;20288;-81
2023/09/06 08:25:28;;;;;;;5.43;4.53;;;24.90;99.90;;;;;;4993456;28;20229;-81
2023/09/06 08:27:55;;;;;;;7.40;6.70;;;24.90;99.90;;;;;;4977500;28;20263;-81
2023/09/06 08:30:22;;;;;;;6.03;5.10;;;25.10;99.90;;;;;;4983670;28;20214;-80
2023/09/06 08:32:50;;;;;;;5.87;5.20;;;25.30;99.90;;;;;;4984262;28;20615;-81
2023/09/06 08:35:18;;;;;;;7.17;6.57;;;25.40;99.90;;;;;;4995334;28;20189;-80
2023/09/06 08:37:46;;;;;;;5.07;4.57;;;25.30;99.90;;;;;;4986438;28;20210;-81
2023/09/06 08:40:15;;;;;;;5.70;5.00;;;25.60;99.90;;;;;;4990999;28;20798;-80
2023/09/06 08:42:45;;;;;;;8.47;6.60;;;25.60;99.90;;;;;;4984066;28;20197;-81
2023/09/06 08:45:12;;;;;;;6.93;4.77;;;25.80;99.90;;;;;;4989519;28;20209;-81
2023/09/06 08:47:40;;;;;;;9.27;5.17;;;25.90;99.90;;;;;;4991925;28;20691;-81
2023/09/06 08:50:10;;;;;;;8.90;8.00;;;26.00;99.90;;;;;;4988590;28;20717;-82
2023/09/06 08:52:39;;;;;;;6.77;5.13;;;25.90;99.90;;;;;;4986167;28;20224;-81
2023/09/06 08:55:07;;;;;;;5.80;4.80;;;25.70;99.90;;;;;;4990010;28;20280;-81
2023/09/06 08:57:36;;;;;;;8.97;8.07;;;25.50;99.90;;;;;;4981207;28;20228;-81
2023/09/06 09:00:04;;;;;;;8.13;6.23;;;25.70;99.90;;;;;;4985532;28;20562;-81
2023/09/06 09:02:31;;;;;;;8.63;7.83;;;25.70;99.90;;;;;;4984225;28;20269;-82
2023/09/06 09:04:58;;;;;;;6.53;4.63;;;25.80;99.90;;;;;;4989510;28;20268;-81
2023/09/06 09:07:25;;;;;;;10.60;9.80;;;26.00;99.90;;;;;;4989649;28;20209;-82
2023/09/06 09:09:57;;;;;;;10.60;9.73;;;25.70;99.90;;;;;;4988944;28;20218;-81
2023/09/06 09:12:25;;;;;;;9.67;8.97;;;25.40;99.90;;;;;;4991473;28;20197;-80
2023/09/06 09:14:54;;;;;;;9.40;8.60;;;25.40;99.90;;;;;;4989472;28;20213;-81
2023/09/06 09:17:22;;;;;;;9.50;8.70;;;25.30;99.90;;;;;;4983377;28;20587;-81
2023/09/06 09:19:50;;;;;;;9.53;8.83;;;25.70;99.90;;;;;;4986465;28;20190;-81
2023/09/06 09:22:23;;;;;;;8.93;8.13;;;25.90;99.90;;;;;;4987595;28;20227;-81
2023/09/06 09:24:50;;;;;;;9.13;8.20;;;25.80;99.90;;;;;;4980509;28;20222;-81
2023/09/06 09:27:18;;;;;;;9.13;8.33;;;25.50;99.90;;;;;;4991104;28;20193;-81
2023/09/06 09:29:47;;;;;;;9.53;8.53;;;25.60;99.90;;;;;;4987414;28;20221;-81
2023/09/06 09:32:15;;;;;;;8.70;7.93;;;25.10;99.90;;;;;;4985437;28;20228;-81
2023/09/06 09:34:42;;;;;;;8.67;7.97;;;25.50;99.90;;;;;;4979449;28;20369;-79
2023/09/06 09:37:10;;;;;;;7.97;7.37;;;25.80;99.90;;;;;;4986205;28;20204;-80
2023/09/06 09:39:37;;;;;;;7.87;7.17;;;25.90;99.90;;;;;;4986260;28;20198;-80
2023/09/06 09:42:05;;;;;;;9.30;8.40;;;26.10;99.90;;;;;;4981648;28;20217;-80
2023/09/06 09:44:32;;;;;;;9.20;8.40;;;26.00;99.90;;;;;;4987135;28;20229;-79
2023/09/06 09:47:08;;;;;;;9.83;9.03;;;26.10;99.90;;;;;;4986070;28;20206;-79
2023/09/06 09:49:40;;;;;;;9.47;8.67;;;26.20;99.90;;;;;;4987473;28;20236;-80
2023/09/06 09:52:10;;;;;;;10.23;9.10;;;26.10;99.90;;;;;;4985790;28;20668;-80
2023/09/06 09:54:40;;;;;;;8.80;8.00;;;26.00;99.90;;;;;;4991576;28;20284;-81
2023/09/06 09:57:07;;;;;;;9.10;8.40;;;25.70;99.90;;;;;;4988606;28;20205;-81
2023/09/06 09:59:36;;;;;;;8.73;7.93;;;26.10;99.90;;;;;;4988485;28;20579;-81
2023/09/06 10:02:05;;;;;;;8.97;8.23;;;26.30;99.90;;;;;;4984923;28;20209;-81
2023/09/06 10:04:37;;;;;;;9.60;8.80;;;26.30;99.90;;;;;;4989681;28;20221;-80
2023/09/06 10:07:08;;;;;;;8.37;7.53;;;25.80;99.90;;;;;;4984012;28;20577;-81
2023/09/06 10:09:39;;;;;;;8.43;7.73;;;25.70;99.90;;;;;;4984999;28;20257;-80
2023/09/06 10:12:09;;;;;;;8.50;7.70;;;25.90;99.90;;;;;;4992677;28;20300;-80
2023/09/06 10:14:39;;;;;;;8.43;7.70;;;25.90;99.90;;;;;;4987518;28;20247;-81
2023/09/06 10:17:07;;;;;;;8.13;7.43;;;25.80;99.90;;;;;;4995875;28;20201;-82
2023/09/06 10:19:34;;;;;;;7.80;7.10;;;25.80;99.90;;;;;;4990101;28;20196;-81
2023/09/06 10:22:04;;;;;;;8.30;7.60;;;25.90;99.90;;;;;;4997447;28;20248;-80
2023/09/06 10:24:35;;;;;;;8.00;7.40;;;25.90;99.90;;;;;;4991042;28;20228;-80
2023/09/06 10:27:02;;;;;;;7.57;6.93;;;26.00;99.90;;;;;;5004901;28;20197;-81
2023/09/06 10:29:31;;;;;;;7.63;7.03;;;26.10;99.90;;;;;;4997113;28;20221;-81
2023/09/06 10:32:02;;;;;;;8.20;7.40;;;26.10;99.90;;;;;;4982442;28;20201;-81
2023/09/06 10:34:32;;;;;;;7.70;7.10;;;25.90;99.90;;;;;;4983923;28;20633;-81
2023/09/06 10:37:01;;;;;;;8.17;7.47;;;26.00;99.90;;;;;;4986172;28;20318;-80
2023/09/06 10:39:31;;;;;;;8.03;7.23;;;25.80;99.90;;;;;;4980833;28;20206;-81
2023/09/06 10:42:28;;;;;;;8.30;7.60;;;25.50;99.90;;;;;;4995002;28;20223;-81
2023/09/06 10:45:17;;;;;;;10.30;8.53;;;25.10;99.90;;;;;;4980474;28;20269;-81
2023/09/06 10:47:44;;;;;;;9.43;8.53;;;24.70;99.90;;;;;;4981191;28;20221;-80
2023/09/06 10:50:12;;;;;;;9.80;9.00;;;24.60;99.90;;;;;;4983147;28;20220;-81
2023/09/06 10:52:44;;;;;;;9.63;8.73;;;24.40;99.90;;;;;;4990246;28;20204;-81
2023/09/06 10:55:15;;;;;;;9.60;8.70;;;24.30;99.90;;;;;;4989532;28;20604;-81
2023/09/06 10:57:50;;;;;;;10.17;9.27;;;24.40;99.90;;;;;;4989418;28;20209;-81
2023/09/06 11:00:25;;;;;;;11.33;10.43;;;24.60;99.90;;;;;;4986902;28;20197;-80
2023/09/06 11:03:17;;;;;;;9.80;9.00;;;24.70;99.90;;;;;;4990303;28;20292;-81
2023/09/06 11:05:46;;;;;;;9.57;8.77;;;24.80;99.90;;;;;;4995360;28;20200;-81
2023/09/06 11:08:24;;;;;;;10.33;9.23;;;24.70;99.90;;;;;;4992057;28;20193;-81
2023/09/06 11:10:53;;;;;;;10.33;9.33;;;24.70;99.90;;;;;;4983705;28;20686;-81
2023/09/06 11:13:22;;;;;;;9.70;9.00;;;24.70;99.90;;;;;;4986530;28;20250;-81
2023/09/06 11:15:51;;;;;;;9.93;9.13;;;24.80;99.90;;;;;;4990860;28;20212;-81
2023/09/06 11:18:18;;;;;;;9.60;8.90;;;24.90;99.90;;;;;;4985469;28;20680;-81
2023/09/06 11:20:49;;;;;;;10.17;9.37;;;25.00;99.90;;;;;;4986365;28;20256;-81
2023/09/06 11:23:17;;;;;;;10.63;9.67;;;25.00;99.90;;;;;;4984253;28;20221;-81
2023/09/06 11:25:45;;;;;;;9.87;9.07;;;24.90;99.90;;;;;;4980246;28;20290;-81
2023/09/06 11:28:18;;;;;;;10.07;9.27;;;24.80;99.90;;;;;;5022839;28;20229;-80
2023/09/06 11:30:47;;;;;;;9.97;9.17;;;24.80;99.90;;;;;;4995611;28;20240;-81
2023/09/06 11:33:16;;;;;;;10.33;9.53;;;24.80;99.90;;;;;;4991923;28;20217;-80
2023/09/06 11:35:51;;;;;;;10.37;9.67;;;24.80;99.90;;;;;;4985823;28;20271;-81
2023/09/06 11:38:24;;;;;;;9.77;8.97;;;24.80;99.90;;;;;;4985611;28;20217;-80
2023/09/06 11:40:52;;;;;;;10.13;9.33;;;24.90;99.90;;;;;;4994533;28;20203;-80
2023/09/06 11:43:23;;;;;;;10.20;9.30;;;24.90;99.90;;;;;;5019960;28;20345;-80
2023/09/06 11:45:53;;;;;;;10.90;9.80;;;24.90;99.90;;;;;;4996559;28;20212;-79
2023/09/06 11:48:25;;;;;;;10.30;9.30;;;24.90;99.90;;;;;;4990794;28;20284;-80
2023/09/06 11:50:58;;;;;;;10.83;9.90;;;24.80;99.90;;;;;;4991178;28;20218;-79
2023/09/06 11:53:25;;;;;;;10.23;9.50;;;25.00;99.90;;;;;;4991204;28;20241;-79
2023/09/06 11:55:54;;;;;;;11.50;10.30;;;25.10;99.90;;;;;;4995389;28;20228;-80
2023/09/06 11:58:23;;;;;;;10.70;9.80;;;25.00;99.90;;;;;;4992670;28;20217;-80
2023/09/06 12:00:50;;;;;;;11.33;9.50;;;25.10;99.90;;;;;;4985147;28;20198;-80
2023/09/06 12:03:20;;;;;;;10.50;9.70;;;25.20;99.90;;;;;;4996309;28;20217;-80
2023/09/06 12:05:48;;;;;;;10.80;10.00;;;25.20;99.90;;;;;;4987549;28;20201;-80
2023/09/06 12:08:19;;;;;;;11.43;10.33;;;25.30;99.90;;;;;;4985516;28;20202;-80
2023/09/06 12:10:49;;;;;;;11.03;10.10;;;25.20;99.90;;;;;;5004091;28;20217;-82
2023/09/06 12:13:16;;;;;;;10.63;9.73;;;25.20;99.90;;;;;;4993404;28;20220;-82
2023/09/06 12:15:45;;;;;;;11.10;10.30;;;25.20;99.90;;;;;;4981585;28;20202;-82
2023/09/06 12:18:13;;;;;;;10.90;10.00;;;25.30;99.90;;;;;;4991634;28;20209;-82
2023/09/06 12:20:40;;;;;;;10.73;9.83;;;25.30;99.90;;;;;;4987642;28;20208;-81
2023/09/06 12:23:07;;;;;;;10.67;9.87;;;25.40;99.90;;;;;;4987639;28;20192;-81
2023/09/06 12:25:34;;;;;;;10.70;9.90;;;25.40;99.90;;;;;;4988152;28;20250;-81
2023/09/06 12:28:03;;;;;;;10.50;9.70;;;25.40;99.90;;;;;;4992458;28;20194;-82
2023/09/06 12:30:30;;;;;;;10.73;9.63;;;25.50;99.90;;;;;;4990595;28;20221;-81
2023/09/06 12:32:58;;;;;;;10.93;10.13;;;25.50;99.90;;;;;;4986595;28;20201;-81
2023/09/06 12:35:25;;;;;;;10.37;9.40;;;25.60;99.90;;;;;;4988774;28;20205;-81
2023/09/06 12:37:52;;;;;;;10.20;9.40;;;25.70;99.90;;;;;;4985530;28;20306;-81
2023/09/06 12:40:25;;;;;;;10.63;9.83;;;25.70;99.90;;;;;;4980226;28;20201;-82
2023/09/06 12:42:54;;;;;;;10.27;9.47;;;25.70;99.90;;;;;;4978787;28;20228;-81
2023/09/06 12:45:26;;;;;;;10.10;9.20;;;25.80;99.90;;;;;;4980792;28;20213;-81
2023/09/06 12:48:01;;;;;;;10.00;9.10;;;25.80;99.90;;;;;;4979793;28;20593;-82